createdAt,value
2019-01-27T00:01:49.306Z,99.90
2019-01-27T00:04:49.852Z,99.90
2019-01-27T00:07:50.734Z,99.90
2019-01-27T00:10:51.309Z,99.90
2019-01-27T00:13:52.132Z,99.90
2019-01-27T00:16:53.336Z,99.90
2019-01-27T00:19:42.014Z,99.90
2019-01-27T00:22:49.968Z,99.90
2019-01-27T00:25:51.069Z,99.90
2019-01-27T00:28:51.561Z,99.90
2019-01-27T00:31:52.009Z,99.90
2019-01-27T00:34:52.714Z,99.90
2019-01-27T00:37:53.590Z,99.90
2019-01-27T00:40:53.944Z,99.90
2019-01-27T00:43:54.549Z,99.90
2019-01-27T00:46:55.934Z,99.90
2019-01-27T00:49:56.948Z,99.90
2019-01-27T00:52:57.220Z,99.90
2019-01-27T00:55:45.869Z,99.90
2019-01-27T00:58:53.788Z,99.90
2019-01-27T01:01:54.704Z,99.90
2019-01-27T01:04:55.209Z,99.90
2019-01-27T01:07:55.455Z,99.90
2019-01-27T01:10:56.095Z,99.90
2019-01-27T01:13:56.394Z,99.90
2019-01-27T01:16:56.688Z,99.90
2019-01-27T01:19:57.232Z,99.90
2019-01-27T01:22:57.684Z,99.90
2019-01-27T01:25:58.112Z,99.90
2019-01-27T01:28:59.016Z,99.90
2019-01-27T01:31:59.473Z,99.90
2019-01-27T01:34:59.880Z,99.90
2019-01-27T01:38:28.497Z,99.90
2019-01-27T01:44:28.438Z,99.90
2019-01-27T01:47:28.845Z,99.90
2019-01-27T01:50:29.185Z,99.90
2019-01-27T01:53:29.597Z,99.90
2019-01-27T01:56:30.109Z,99.90
2019-01-27T01:59:30.394Z,99.90
2019-01-27T02:02:31.609Z,99.90
2019-01-27T02:05:32.722Z,99.90
2019-01-27T02:08:33.192Z,99.90
2019-01-27T02:11:34.353Z,99.90
2019-01-27T02:14:35.109Z,99.90
2019-01-27T02:17:36.233Z,99.90
2019-01-27T02:20:36.537Z,99.90
2019-01-27T02:23:37.328Z,99.90
2019-01-27T02:26:37.950Z,99.90
2019-01-27T02:29:38.557Z,99.90
2019-01-27T02:32:39.367Z,99.90
2019-01-27T02:35:39.799Z,99.90
2019-01-27T02:38:40.125Z,99.90
2019-01-27T02:41:40.334Z,99.90
2019-01-27T02:44:40.693Z,99.90
2019-01-27T02:47:41.821Z,99.90
2019-01-27T02:50:42.909Z,99.90
2019-01-27T02:53:43.225Z,99.90
2019-01-27T02:56:43.630Z,99.90
2019-01-27T02:59:44.560Z,99.90
2019-01-27T03:02:44.890Z,99.90
2019-01-27T03:06:04.900Z,99.90
2019-01-27T03:09:07.501Z,99.90
2019-01-27T03:12:08.108Z,99.90
2019-01-27T03:14:56.733Z,99.90
2019-01-27T03:18:04.646Z,99.90
2019-01-27T03:21:04.965Z,99.90
2019-01-27T03:24:05.543Z,99.90
2019-01-27T03:27:06.468Z,99.90
2019-01-27T03:30:06.905Z,99.90
2019-01-27T03:33:07.146Z,99.90
2019-01-27T03:36:07.885Z,99.90
2019-01-27T03:39:09.157Z,99.90
2019-01-27T03:42:10.401Z,99.90
2019-01-27T03:45:11.281Z,99.90
2019-01-27T03:47:59.816Z,99.90
2019-01-27T03:51:07.648Z,99.90
2019-01-27T03:54:08.623Z,99.90
2019-01-27T03:57:09.283Z,99.90
2019-01-27T04:00:09.786Z,99.90
2019-01-27T04:03:10.527Z,99.90
2019-01-27T04:06:10.779Z,99.90
2019-01-27T04:09:11.409Z,99.90
2019-01-27T04:12:12.242Z,99.90
2019-01-27T04:15:12.677Z,99.90
2019-01-27T04:18:13.208Z,99.90
2019-01-27T04:21:14.144Z,99.90
2019-01-27T04:24:14.839Z,99.90
2019-01-27T04:27:16.021Z,99.90
2019-01-27T04:30:17.199Z,99.90
2019-01-27T04:33:17.611Z,99.90
2019-01-27T04:36:18.054Z,99.90
2019-01-27T04:39:18.536Z,99.90
2019-01-27T04:42:19.629Z,99.90
2019-01-27T04:45:24.939Z,99.90
2019-01-27T04:48:25.955Z,99.90
2019-01-27T04:51:26.514Z,99.90
2019-01-27T04:54:27.118Z,99.90
2019-01-27T04:57:27.822Z,99.90
2019-01-27T05:00:28.184Z,99.90
2019-01-27T05:03:32.800Z,99.90
2019-01-27T05:06:33.525Z,99.90
2019-01-27T05:09:33.909Z,99.90
2019-01-27T05:12:35.104Z,99.90
2019-01-27T05:15:35.912Z,99.90
2019-01-27T05:18:36.393Z,99.90
2019-01-27T05:21:37.178Z,99.90
2019-01-27T05:24:37.932Z,99.90
2019-01-27T05:27:38.210Z,99.90
2019-01-27T05:30:38.569Z,99.90
2019-01-27T05:33:38.878Z,99.90
2019-01-27T05:36:39.662Z,99.90
2019-01-27T05:39:40.638Z,99.90
2019-01-27T05:42:41.297Z,99.90
2019-01-27T05:45:41.635Z,99.90
2019-01-27T05:48:42.125Z,99.90
2019-01-27T05:51:43.011Z,99.90
2019-01-27T05:54:43.213Z,99.90
2019-01-27T05:57:43.624Z,99.90
2019-01-27T06:00:45.881Z,99.90
2019-01-27T06:03:46.457Z,99.90
2019-01-27T06:06:46.816Z,99.90
2019-01-27T06:09:47.212Z,99.90
2019-01-27T06:12:47.773Z,99.90
2019-01-27T06:15:48.461Z,99.90
2019-01-27T06:18:48.778Z,99.90
2019-01-27T06:21:49.065Z,99.90
2019-01-27T06:24:49.454Z,99.90
2019-01-27T06:27:49.878Z,99.90
2019-01-27T06:30:50.933Z,99.90
2019-01-27T06:33:53.360Z,99.90
2019-01-27T06:36:53.758Z,99.90
2019-01-27T06:39:54.512Z,99.90
2019-01-27T06:42:54.764Z,99.90
2019-01-27T06:45:55.351Z,99.90
2019-01-27T06:48:55.647Z,99.90
2019-01-27T06:51:55.997Z,99.90
2019-01-27T06:54:56.648Z,99.90
2019-01-27T06:57:57.717Z,99.90
2019-01-27T07:00:59.709Z,99.90
2019-01-27T07:04:01.697Z,99.90
2019-01-27T07:07:04.124Z,99.90
2019-01-27T07:10:23.803Z,99.90
2019-01-27T07:13:32.299Z,99.90
2019-01-27T07:19:48.304Z,99.90
2019-01-27T07:22:50.642Z,99.90
2019-01-27T07:25:52.980Z,99.90
2019-01-27T07:28:55.053Z,99.90
2019-01-27T07:35:28.658Z,99.90
2019-01-27T07:38:34.596Z,99.90
2019-01-27T07:41:54.524Z,99.90
2019-01-27T07:45:00.096Z,99.90
2019-01-27T07:48:02.517Z,99.90
2019-01-27T07:51:07.961Z,99.90
2019-01-27T07:54:12.605Z,99.90
2019-01-27T08:00:46.444Z,99.90
2019-01-27T08:03:48.441Z,99.90
2019-01-27T08:06:50.634Z,99.90
2019-01-27T08:09:53.181Z,99.90
2019-01-27T08:16:09.532Z,99.90
2019-01-27T08:19:12.035Z,99.90
2019-01-27T08:22:33.037Z,99.90
2019-01-27T08:28:48.902Z,99.90
2019-01-27T08:31:50.945Z,99.90
2019-01-27T08:41:20.442Z,99.90
2019-01-27T08:44:22.637Z,99.90
2019-01-27T08:47:23.322Z,99.90
2019-01-27T08:50:24.096Z,99.90
2019-01-27T08:53:25.357Z,99.90
2019-01-27T08:56:25.673Z,99.90
2019-01-27T08:59:26.072Z,99.90
2019-01-27T09:02:27.970Z,99.90
2019-01-27T09:05:47.626Z,99.90
2019-01-27T09:08:54.594Z,99.90
2019-01-27T09:12:15.097Z,99.90
2019-01-27T09:15:35.481Z,99.90
2019-01-27T09:18:40.690Z,99.90
2019-01-27T09:25:14.044Z,99.90
2019-01-27T09:28:19.258Z,99.90
2019-01-27T09:31:21.912Z,99.90
2019-01-27T09:34:26.832Z,99.90
2019-01-27T09:37:32.577Z,99.90
2019-01-27T09:40:52.020Z,99.90
2019-01-27T09:44:00.584Z,99.90
2019-01-27T09:47:02.537Z,99.90
2019-01-27T09:50:07.939Z,99.90
2019-01-27T09:53:28.073Z,99.90
2019-01-27T09:56:48.446Z,99.90
2019-01-27T09:59:51.249Z,99.90
2019-01-27T10:03:11.552Z,99.90
2019-01-27T10:06:13.849Z,99.90
2019-01-27T10:09:33.466Z,99.90
2019-01-27T10:12:42.150Z,99.90
2019-01-27T10:16:09.354Z,99.90
2019-01-27T10:19:11.653Z,99.90
2019-01-27T10:22:13.882Z,99.90
2019-01-27T10:25:34.118Z,99.90
2019-01-27T10:28:39.525Z,99.90
2019-01-27T10:31:42.098Z,99.90
2019-01-27T10:38:00.494Z,99.90
2019-01-27T10:41:02.872Z,99.90
2019-01-27T10:44:23.316Z,99.90
2019-01-27T10:47:43.113Z,99.90
2019-01-27T10:50:48.275Z,99.90
2019-01-27T10:53:53.519Z,99.90
2019-01-27T10:56:56.293Z,99.90
2019-01-27T11:03:12.432Z,99.90
2019-01-27T11:06:32.499Z,99.90
2019-01-27T11:09:52.677Z,99.90
2019-01-27T11:16:26.363Z,99.90
2019-01-27T11:19:29.231Z,99.90
2019-01-27T11:22:31.358Z,99.90
2019-01-27T11:25:33.532Z,99.90
2019-01-27T11:29:03.188Z,99.90
2019-01-27T11:35:50.482Z,99.90
2019-01-27T11:38:55.603Z,99.90
2019-01-27T11:42:15.830Z,99.90
2019-01-27T11:45:35.417Z,99.90
2019-01-27T11:48:41.188Z,99.90
2019-01-27T11:51:43.007Z,99.90
2019-01-27T11:54:44.164Z,99.90
2019-01-27T11:57:44.590Z,99.90
2019-01-27T12:00:46.452Z,99.90
2019-01-27T12:03:47.002Z,99.90
2019-01-27T12:06:47.417Z,99.90
2019-01-27T12:09:47.949Z,99.90
2019-01-27T12:12:48.662Z,99.90
2019-01-27T12:15:49.989Z,99.90
2019-01-27T12:18:50.806Z,99.90
2019-01-27T12:21:51.966Z,99.90
2019-01-27T12:24:53.129Z,99.90
2019-01-27T12:27:53.381Z,99.90
2019-01-27T12:31:22.126Z,99.90
2019-01-27T12:37:37.717Z,99.90
2019-01-27T12:40:38.154Z,99.90
2019-01-27T12:43:38.670Z,99.90
2019-01-27T12:46:39.410Z,99.90
2019-01-27T12:49:40.960Z,99.90
2019-01-27T12:52:41.995Z,99.90
2019-01-27T12:55:42.586Z,99.90
2019-01-27T12:58:42.944Z,99.90
2019-01-27T13:01:43.246Z,99.90
2019-01-27T13:04:43.753Z,99.90
2019-01-27T13:07:44.349Z,99.90
2019-01-27T13:10:44.823Z,99.90
2019-01-27T13:13:45.536Z,99.90
2019-01-27T13:16:45.818Z,99.90
2019-01-27T13:19:46.291Z,99.90
2019-01-27T13:22:47.623Z,99.90
2019-01-27T13:25:48.550Z,96.70
2019-01-27T13:28:50.022Z,93.30
2019-01-27T13:31:51.393Z,90.70
2019-01-27T13:34:56.268Z,69.90
2019-01-27T13:37:56.282Z,74.30
2019-01-27T13:40:57.715Z,76.10
2019-01-27T13:43:59.276Z,78.50
2019-01-27T13:47:00.910Z,79.10
2019-01-27T13:50:02.255Z,76.90
2019-01-27T13:53:03.332Z,72.40
2019-01-27T13:56:04.958Z,71.50
2019-01-27T13:59:06.494Z,69.20
2019-01-27T14:02:07.768Z,69.10
2019-01-27T14:05:09.267Z,70.90
2019-01-27T14:08:09.982Z,75.30
2019-01-27T14:11:10.352Z,81.10
2019-01-27T14:14:11.150Z,83.90
2019-01-27T14:17:12.443Z,84.10
2019-01-27T14:20:13.704Z,87.40
2019-01-27T14:23:14.657Z,89.50
2019-01-27T14:26:15.456Z,90.70
2019-01-27T14:29:16.592Z,91.60
2019-01-27T14:32:17.777Z,92.30
2019-01-27T14:35:18.712Z,93.10
2019-01-27T14:38:19.150Z,93.40
2019-01-27T14:41:19.908Z,93.80
2019-01-27T14:44:20.309Z,93.90
2019-01-27T14:47:21.744Z,94.40
2019-01-27T14:50:22.606Z,94.90
2019-01-27T14:53:22.959Z,95.30
2019-01-27T14:56:23.828Z,96.00
2019-01-27T14:59:24.215Z,96.40
2019-01-27T15:02:24.897Z,96.50
2019-01-27T15:05:25.283Z,96.40
2019-01-27T15:08:25.671Z,96.40
2019-01-27T15:11:26.540Z,96.60
2019-01-27T15:14:26.934Z,97.00
2019-01-27T15:17:28.787Z,97.40
2019-01-27T15:20:29.698Z,98.00
2019-01-27T15:23:30.153Z,98.30
2019-01-27T15:26:30.777Z,98.80
2019-01-27T15:29:31.926Z,98.90
2019-01-27T15:32:33.357Z,99.10
2019-01-27T15:35:33.912Z,99.80
2019-01-27T15:38:34.588Z,99.90
2019-01-27T15:41:35.253Z,99.90
2019-01-27T15:44:35.569Z,99.90
2019-01-27T15:47:36.976Z,99.90
2019-01-27T15:50:37.328Z,99.90
2019-01-27T15:53:37.803Z,99.90
2019-01-27T15:56:38.513Z,99.90
2019-01-27T15:59:38.866Z,99.90
2019-01-27T16:02:39.190Z,99.90
2019-01-27T16:05:40.668Z,99.90
2019-01-27T16:08:41.405Z,99.90
2019-01-27T16:11:42.440Z,99.90
2019-01-27T16:14:42.948Z,99.90
2019-01-27T16:17:43.999Z,99.90
2019-01-27T16:20:44.565Z,99.90
2019-01-27T16:23:45.969Z,99.90
2019-01-27T16:26:47.041Z,99.90
2019-01-27T16:29:49.057Z,99.90
2019-01-27T16:32:51.114Z,99.90
2019-01-27T16:35:52.207Z,99.90
2019-01-27T16:38:53.253Z,99.90
2019-01-27T16:41:53.868Z,99.90
2019-01-27T16:44:55.199Z,99.90
2019-01-27T16:47:55.793Z,99.90
2019-01-27T16:50:56.205Z,99.90
2019-01-27T16:53:56.556Z,99.90
2019-01-27T16:56:58.306Z,99.90
2019-01-27T16:59:59.059Z,99.90
2019-01-27T17:02:59.302Z,99.90
2019-01-27T17:06:00.108Z,99.90
2019-01-27T17:09:00.717Z,99.90
2019-01-27T17:12:01.310Z,99.90
2019-01-27T17:15:01.780Z,99.90
2019-01-27T17:18:02.324Z,99.90
2019-01-27T17:21:03.426Z,99.90
2019-01-27T17:24:03.797Z,99.90
2019-01-27T17:27:04.338Z,99.90
2019-01-27T17:30:05.368Z,99.90
2019-01-27T17:33:06.147Z,99.90
2019-01-27T17:36:08.718Z,99.90
2019-01-27T17:39:10.067Z,99.90
2019-01-27T17:42:11.315Z,99.90
2019-01-27T17:45:11.721Z,99.90
2019-01-27T17:48:12.546Z,99.90
2019-01-27T17:51:13.486Z,99.90
2019-01-27T17:54:13.925Z,99.90
2019-01-27T17:57:16.068Z,99.90
2019-01-27T18:00:35.907Z,99.90
2019-01-27T18:03:55.741Z,99.90
2019-01-27T18:07:00.513Z,99.90
2019-01-27T18:10:03.070Z,99.90
2019-01-27T18:13:06.099Z,99.90
2019-01-27T18:16:08.616Z,99.90
2019-01-27T18:19:09.177Z,99.90
2019-01-27T18:22:09.444Z,99.90
2019-01-27T18:25:09.983Z,99.90
2019-01-27T18:28:10.628Z,99.90
2019-01-27T18:31:11.410Z,99.90
2019-01-27T18:34:11.968Z,99.90
2019-01-27T18:37:12.325Z,99.90
2019-01-27T18:40:12.806Z,99.90
2019-01-27T18:43:13.497Z,99.90
2019-01-27T18:46:13.974Z,99.90
2019-01-27T18:49:14.744Z,99.90
2019-01-27T18:52:16.471Z,99.90
2019-01-27T18:55:36.217Z,99.90
2019-01-27T18:58:42.974Z,99.90
2019-01-27T19:02:02.782Z,99.90
2019-01-27T19:05:05.325Z,99.90
2019-01-27T19:08:25.625Z,99.90
2019-01-27T19:11:45.836Z,99.90
2019-01-27T19:18:14.580Z,99.90
2019-01-27T19:21:19.759Z,99.90
2019-01-27T19:27:53.907Z,99.90
2019-01-27T19:31:14.044Z,99.90
2019-01-27T19:34:17.373Z,99.90
2019-01-27T19:37:19.798Z,99.90
2019-01-27T19:40:25.173Z,99.90
2019-01-27T19:43:28.121Z,99.90
2019-01-27T19:46:48.461Z,99.90
2019-01-27T19:53:36.370Z,99.90
2019-01-27T19:56:42.107Z,99.90
2019-01-27T20:00:02.137Z,99.90
2019-01-27T20:03:22.244Z,99.90
2019-01-27T20:09:39.326Z,99.90
2019-01-27T20:12:59.534Z,99.90
2019-01-27T20:16:02.155Z,99.90
2019-01-27T20:19:22.209Z,99.90
2019-01-27T20:22:24.501Z,99.90
2019-01-27T20:25:26.518Z,99.90
2019-01-27T20:28:46.814Z,99.90
2019-01-27T20:41:45.689Z,99.90
2019-01-27T20:48:04.399Z,99.90
2019-01-27T20:51:24.523Z,99.90
2019-01-27T20:54:30.267Z,99.90
2019-01-27T20:57:50.176Z,99.90
2019-01-27T21:00:53.150Z,99.90
2019-01-27T21:07:12.359Z,99.90
2019-01-27T21:13:42.392Z,99.90
2019-01-27T21:17:02.594Z,99.90
2019-01-27T21:20:04.006Z,99.90
2019-01-27T21:23:04.913Z,99.90
2019-01-27T21:26:05.273Z,99.90
2019-01-27T21:29:05.821Z,99.90
2019-01-27T21:32:06.187Z,99.90
2019-01-27T21:35:07.405Z,99.90
2019-01-27T21:38:08.819Z,99.90
2019-01-27T21:41:09.786Z,99.90
2019-01-27T21:44:10.223Z,99.90
2019-01-27T21:47:10.714Z,99.90
2019-01-27T21:50:11.922Z,99.90
2019-01-27T21:53:14.007Z,99.90
2019-01-27T21:56:14.546Z,99.90
2019-01-27T21:59:15.430Z,99.90
2019-01-27T22:02:16.071Z,99.90
2019-01-27T22:05:16.494Z,99.90
2019-01-27T22:08:17.077Z,99.90
2019-01-27T22:11:17.653Z,99.90
2019-01-27T22:14:18.475Z,99.90
2019-01-27T22:17:19.193Z,99.90
2019-01-27T22:20:19.678Z,99.90
2019-01-27T22:23:20.243Z,99.90
2019-01-27T22:26:20.648Z,99.90
2019-01-27T22:29:21.879Z,99.90
2019-01-27T22:32:23.070Z,99.90
2019-01-27T22:35:23.617Z,99.90
2019-01-27T22:38:24.168Z,99.90
2019-01-27T22:41:24.925Z,99.90
2019-01-27T22:44:26.063Z,99.90
2019-01-27T22:47:26.444Z,99.90
2019-01-27T22:50:27.692Z,99.90
2019-01-27T22:53:27.965Z,99.90
2019-01-27T22:56:28.418Z,99.90
2019-01-27T22:59:29.656Z,99.90
2019-01-27T23:02:30.086Z,99.90
2019-01-27T23:05:30.426Z,99.90
2019-01-27T23:08:30.825Z,99.90
2019-01-27T23:11:31.302Z,99.90
2019-01-27T23:14:31.913Z,99.90
2019-01-27T23:17:33.149Z,99.90
2019-01-27T23:20:33.525Z,99.90
2019-01-27T23:23:33.936Z,99.90
2019-01-27T23:26:34.389Z,99.90
2019-01-27T23:29:34.969Z,99.90
2019-01-27T23:32:35.313Z,99.90
2019-01-27T23:35:35.582Z,99.90
2019-01-27T23:38:35.939Z,99.90
2019-01-27T23:41:36.557Z,99.90
2019-01-27T23:44:37.277Z,99.90
2019-01-27T23:47:25.820Z,99.90
2019-01-27T23:50:33.662Z,99.90
2019-01-27T23:53:34.244Z,99.90
2019-01-27T23:56:34.572Z,99.90
2019-01-27T23:59:34.991Z,99.90
